sensor_id;sensor_type;location;lat;lon;timestamp;P1;durP1;ratioP1;P2;durP2;ratioP2
3225;SDS011;1625;49.884;8.666;2022-10-31T00:02:21;10.43;;;7.70;;
3225;SDS011;1625;49.884;8.666;2022-10-31T00:04:46;9.57;;;7.47;;
3225;SDS011;1625;49.884;8.666;2022-10-31T00:07:12;11.97;;;8.23;;
3225;SDS011;1625;49.884;8.666;2022-10-31T00:09:37;9.20;;;8.37;;
3225;SDS011;1625;49.884;8.666;2022-10-31T00:12:03;10.73;;;8.57;;
3225;SDS011;1625;49.884;8.666;2022-10-31T00:14:29;9.20;;;8.17;;
3225;SDS011;1625;49.884;8.666;2022-10-31T00:16:54;10.90;;;8.97;;
3225;SDS011;1625;49.884;8.666;2022-10-31T00:19:20;9.83;;;8.50;;
3225;SDS011;1625;49.884;8.666;2022-10-31T00:21:45;11.63;;;8.00;;
3225;SDS011;1625;49.884;8.666;2022-10-31T00:24:11;12.20;;;8.77;;
3225;SDS011;1625;49.884;8.666;2022-10-31T00:26:36;10.23;;;9.20;;
3225;SDS011;1625;49.884;8.666;2022-10-31T00:29:02;12.93;;;8.50;;
3225;SDS011;1625;49.884;8.666;2022-10-31T00:31:28;13.10;;;8.10;;
3225;SDS011;1625;49.884;8.666;2022-10-31T00:33:53;11.97;;;8.23;;
3225;SDS011;1625;49.884;8.666;2022-10-31T00:36:19;11.20;;;8.90;;
3225;SDS011;1625;49.884;8.666;2022-10-31T00:38:45;10.83;;;9.13;;
3225;SDS011;1625;49.884;8.666;2022-10-31T00:41:12;13.23;;;10.10;;
3225;SDS011;1625;49.884;8.666;2022-10-31T00:43:39;13.63;;;9.53;;
3225;SDS011;1625;49.884;8.666;2022-10-31T00:46:04;9.43;;;8.50;;
3225;SDS011;1625;49.884;8.666;2022-10-31T00:48:30;10.73;;;9.03;;
3225;SDS011;1625;49.884;8.666;2022-10-31T00:50:55;9.97;;;8.33;;
3225;SDS011;1625;49.884;8.666;2022-10-31T00:53:21;15.67;;;8.70;;
3225;SDS011;1625;49.884;8.666;2022-10-31T00:55:47;9.73;;;8.60;;
3225;SDS011;1625;49.884;8.666;2022-10-31T00:58:12;9.37;;;8.47;;
3225;SDS011;1625;49.884;8.666;2022-10-31T01:00:38;10.63;;;8.60;;
3225;SDS011;1625;49.884;8.666;2022-10-31T01:03:04;10.30;;;7.87;;
3225;SDS011;1625;49.884;8.666;2022-10-31T01:05:30;10.37;;;8.13;;
3225;SDS011;1625;49.884;8.666;2022-10-31T01:07:55;14.63;;;8.47;;
3225;SDS011;1625;49.884;8.666;2022-10-31T01:10:21;10.40;;;8.03;;
3225;SDS011;1625;49.884;8.666;2022-10-31T01:12:47;12.03;;;8.87;;
3225;SDS011;1625;49.884;8.666;2022-10-31T01:15:15;10.33;;;9.30;;
3225;SDS011;1625;49.884;8.666;2022-10-31T01:17:43;13.37;;;9.33;;
3225;SDS011;1625;49.884;8.666;2022-10-31T01:20:09;11.13;;;9.27;;
3225;SDS011;1625;49.884;8.666;2022-10-31T01:22:35;8.20;;;7.40;;
3225;SDS011;1625;49.884;8.666;2022-10-31T01:25:01;10.70;;;7.40;;
3225;SDS011;1625;49.884;8.666;2022-10-31T01:27:27;12.77;;;9.50;;
3225;SDS011;1625;49.884;8.666;2022-10-31T01:29:52;14.60;;;12.30;;
3225;SDS011;1625;49.884;8.666;2022-10-31T01:32:18;13.40;;;9.57;;
3225;SDS011;1625;49.884;8.666;2022-10-31T01:34:43;10.13;;;9.00;;
3225;SDS011;1625;49.884;8.666;2022-10-31T01:37:09;14.30;;;8.07;;
3225;SDS011;1625;49.884;8.666;2022-10-31T01:39:35;11.93;;;7.43;;
3225;SDS011;1625;49.884;8.666;2022-10-31T01:42:00;9.70;;;8.17;;
3225;SDS011;1625;49.884;8.666;2022-10-31T01:46:58;11.10;;;7.43;;
3225;SDS011;1625;49.884;8.666;2022-10-31T01:49:40;11.80;;;7.97;;
3225;SDS011;1625;49.884;8.666;2022-10-31T01:52:22;8.63;;;7.73;;
3225;SDS011;1625;49.884;8.666;2022-10-31T01:54:56;12.53;;;9.17;;
3225;SDS011;1625;49.884;8.666;2022-10-31T01:57:25;9.70;;;8.33;;
3225;SDS011;1625;49.884;8.666;2022-10-31T01:59:53;11.13;;;8.97;;
3225;SDS011;1625;49.884;8.666;2022-10-31T02:02:22;10.30;;;9.30;;
3225;SDS011;1625;49.884;8.666;2022-10-31T02:04:50;11.47;;;8.63;;
3225;SDS011;1625;49.884;8.666;2022-10-31T02:07:18;8.27;;;6.73;;
3225;SDS011;1625;49.884;8.666;2022-10-31T02:09:49;9.87;;;7.80;;
3225;SDS011;1625;49.884;8.666;2022-10-31T02:12:16;12.57;;;8.27;;
3225;SDS011;1625;49.884;8.666;2022-10-31T02:14:43;7.90;;;7.10;;
3225;SDS011;1625;49.884;8.666;2022-10-31T02:17:09;10.73;;;7.37;;
3225;SDS011;1625;49.884;8.666;2022-10-31T02:22:16;10.87;;;6.90;;
3225;SDS011;1625;49.884;8.666;2022-10-31T02:30:07;10.70;;;7.93;;
3225;SDS011;1625;49.884;8.666;2022-10-31T02:32:38;8.63;;;6.47;;
3225;SDS011;1625;49.884;8.666;2022-10-31T02:38:20;9.70;;;7.23;;
3225;SDS011;1625;49.884;8.666;2022-10-31T02:43:47;10.27;;;7.97;;
3225;SDS011;1625;49.884;8.666;2022-10-31T02:46:24;8.50;;;7.80;;
3225;SDS011;1625;49.884;8.666;2022-10-31T02:48:53;7.90;;;6.70;;
3225;SDS011;1625;49.884;8.666;2022-10-31T02:51:22;8.73;;;7.20;;
3225;SDS011;1625;49.884;8.666;2022-10-31T02:53:48;10.80;;;7.17;;
3225;SDS011;1625;49.884;8.666;2022-10-31T02:56:15;7.40;;;6.60;;
3225;SDS011;1625;49.884;8.666;2022-10-31T02:58:49;12.77;;;6.93;;
3225;SDS011;1625;49.884;8.666;2022-10-31T03:06:59;8.97;;;7.07;;
3225;SDS011;1625;49.884;8.666;2022-10-31T03:09:37;12.03;;;8.27;;
3225;SDS011;1625;49.884;8.666;2022-10-31T03:12:16;7.53;;;6.50;;
3225;SDS011;1625;49.884;8.666;2022-10-31T03:15:02;9.97;;;7.60;;
3225;SDS011;1625;49.884;8.666;2022-10-31T03:17:38;8.43;;;7.07;;
3225;SDS011;1625;49.884;8.666;2022-10-31T03:20:20;8.27;;;7.47;;
3225;SDS011;1625;49.884;8.666;2022-10-31T03:22:51;11.20;;;7.60;;
3225;SDS011;1625;49.884;8.666;2022-10-31T03:52:04;9.33;;;8.17;;
3225;SDS011;1625;49.884;8.666;2022-10-31T03:55:39;10.53;;;8.13;;
3225;SDS011;1625;49.884;8.666;2022-10-31T04:00:24;11.93;;;8.00;;
3225;SDS011;1625;49.884;8.666;2022-10-31T04:02:55;9.50;;;7.17;;
3225;SDS011;1625;49.884;8.666;2022-10-31T04:05:25;8.20;;;7.37;;
3225;SDS011;1625;49.884;8.666;2022-10-31T04:07:52;9.33;;;8.13;;
3225;SDS011;1625;49.884;8.666;2022-10-31T04:10:21;11.83;;;8.53;;
3225;SDS011;1625;49.884;8.666;2022-10-31T04:12:50;8.43;;;7.63;;
3225;SDS011;1625;49.884;8.666;2022-10-31T04:15:21;9.83;;;6.77;;
3225;SDS011;1625;49.884;8.666;2022-10-31T04:17:49;10.00;;;7.77;;
3225;SDS011;1625;49.884;8.666;2022-10-31T04:20:18;9.83;;;7.53;;
3225;SDS011;1625;49.884;8.666;2022-10-31T04:22:53;8.30;;;7.20;;
3225;SDS011;1625;49.884;8.666;2022-10-31T04:25:19;8.23;;;7.20;;
3225;SDS011;1625;49.884;8.666;2022-10-31T04:27:44;9.00;;;7.00;;
3225;SDS011;1625;49.884;8.666;2022-10-31T04:30:10;7.47;;;6.77;;
3225;SDS011;1625;49.884;8.666;2022-10-31T04:32:36;8.10;;;7.30;;
3225;SDS011;1625;49.884;8.666;2022-10-31T04:35:01;7.70;;;6.87;;
3225;SDS011;1625;49.884;8.666;2022-10-31T04:37:27;7.30;;;6.60;;
3225;SDS011;1625;49.884;8.666;2022-10-31T04:39:52;9.27;;;6.63;;
3225;SDS011;1625;49.884;8.666;2022-10-31T04:42:18;9.20;;;8.23;;
3225;SDS011;1625;49.884;8.666;2022-10-31T04:44:43;11.63;;;7.97;;
3225;SDS011;1625;49.884;8.666;2022-10-31T04:47:09;8.80;;;7.03;;
3225;SDS011;1625;49.884;8.666;2022-10-31T04:49:34;8.80;;;7.10;;
3225;SDS011;1625;49.884;8.666;2022-10-31T04:52:00;6.70;;;6.10;;
3225;SDS011;1625;49.884;8.666;2022-10-31T04:54:25;9.67;;;6.67;;
3225;SDS011;1625;49.884;8.666;2022-10-31T04:56:51;8.07;;;6.70;;
3225;SDS011;1625;49.884;8.666;2022-10-31T04:59:16;9.33;;;6.30;;
3225;SDS011;1625;49.884;8.666;2022-10-31T05:01:42;11.20;;;7.03;;
3225;SDS011;1625;49.884;8.666;2022-10-31T05:04:07;9.20;;;6.80;;
3225;SDS011;1625;49.884;8.666;2022-10-31T05:06:33;7.77;;;7.07;;
3225;SDS011;1625;49.884;8.666;2022-10-31T05:08:58;7.70;;;7.00;;
3225;SDS011;1625;49.884;8.666;2022-10-31T05:11:24;7.20;;;6.50;;
3225;SDS011;1625;49.884;8.666;2022-10-31T05:13:50;8.20;;;6.87;;
3225;SDS011;1625;49.884;8.666;2022-10-31T05:16:15;9.63;;;6.90;;
3225;SDS011;1625;49.884;8.666;2022-10-31T05:18:41;7.10;;;6.40;;
3225;SDS011;1625;49.884;8.666;2022-10-31T05:21:06;6.23;;;5.60;;
3225;SDS011;1625;49.884;8.666;2022-10-31T05:23:32;6.57;;;5.90;;
3225;SDS011;1625;49.884;8.666;2022-10-31T05:25:57;7.23;;;6.57;;
3225;SDS011;1625;49.884;8.666;2022-10-31T05:28:23;6.67;;;5.80;;
3225;SDS011;1625;49.884;8.666;2022-10-31T05:30:48;7.20;;;5.93;;
3225;SDS011;1625;49.884;8.666;2022-10-31T05:33:14;7.47;;;6.17;;
3225;SDS011;1625;49.884;8.666;2022-10-31T05:35:40;8.80;;;7.90;;
3225;SDS011;1625;49.884;8.666;2022-10-31T05:38:05;6.53;;;5.93;;
3225;SDS011;1625;49.884;8.666;2022-10-31T05:40:31;9.87;;;6.30;;
3225;SDS011;1625;49.884;8.666;2022-10-31T05:42:56;7.20;;;6.50;;
3225;SDS011;1625;49.884;8.666;2022-10-31T05:45:23;9.73;;;6.70;;
3225;SDS011;1625;49.884;8.666;2022-10-31T05:47:53;9.93;;;6.63;;
3225;SDS011;1625;49.884;8.666;2022-10-31T05:50:26;7.20;;;5.80;;
3225;SDS011;1625;49.884;8.666;2022-10-31T05:52:54;6.70;;;6.00;;
3225;SDS011;1625;49.884;8.666;2022-10-31T05:55:21;7.47;;;6.77;;
3225;SDS011;1625;49.884;8.666;2022-10-31T05:57:46;7.03;;;6.43;;
3225;SDS011;1625;49.884;8.666;2022-10-31T06:00:12;7.50;;;6.40;;
3225;SDS011;1625;49.884;8.666;2022-10-31T06:02:38;10.77;;;6.70;;
3225;SDS011;1625;49.884;8.666;2022-10-31T06:05:03;10.17;;;6.70;;
3225;SDS011;1625;49.884;8.666;2022-10-31T06:07:35;7.63;;;6.83;;
3225;SDS011;1625;49.884;8.666;2022-10-31T06:10:02;11.37;;;6.77;;
3225;SDS011;1625;49.884;8.666;2022-10-31T06:12:29;8.33;;;6.70;;
3225;SDS011;1625;49.884;8.666;2022-10-31T06:14:55;11.20;;;7.33;;
3225;SDS011;1625;49.884;8.666;2022-10-31T06:17:20;8.40;;;6.33;;
3225;SDS011;1625;49.884;8.666;2022-10-31T06:19:46;7.90;;;6.37;;
3225;SDS011;1625;49.884;8.666;2022-10-31T06:22:11;10.43;;;6.57;;
3225;SDS011;1625;49.884;8.666;2022-10-31T06:24:37;8.83;;;6.67;;
3225;SDS011;1625;49.884;8.666;2022-10-31T06:27:03;9.73;;;7.10;;
3225;SDS011;1625;49.884;8.666;2022-10-31T06:29:29;10.47;;;7.50;;
3225;SDS011;1625;49.884;8.666;2022-10-31T06:31:55;8.33;;;6.60;;
3225;SDS011;1625;49.884;8.666;2022-10-31T06:34:20;8.03;;;6.87;;
3225;SDS011;1625;49.884;8.666;2022-10-31T06:36:46;10.50;;;6.07;;
3225;SDS011;1625;49.884;8.666;2022-10-31T06:39:12;6.97;;;6.03;;
3225;SDS011;1625;49.884;8.666;2022-10-31T06:41:38;8.80;;;6.63;;
3225;SDS011;1625;49.884;8.666;2022-10-31T06:44:04;6.57;;;5.97;;
3225;SDS011;1625;49.884;8.666;2022-10-31T06:46:31;7.03;;;6.43;;
3225;SDS011;1625;49.884;8.666;2022-10-31T06:48:56;6.70;;;6.00;;
3225;SDS011;1625;49.884;8.666;2022-10-31T06:51:22;6.77;;;5.80;;
3225;SDS011;1625;49.884;8.666;2022-10-31T06:53:47;7.93;;;5.93;;
3225;SDS011;1625;49.884;8.666;2022-10-31T06:56:13;8.50;;;5.83;;
3225;SDS011;1625;49.884;8.666;2022-10-31T06:58:39;8.10;;;5.67;;
3225;SDS011;1625;49.884;8.666;2022-10-31T07:01:04;6.27;;;5.67;;
3225;SDS011;1625;49.884;8.666;2022-10-31T07:03:30;8.87;;;7.30;;
3225;SDS011;1625;49.884;8.666;2022-10-31T07:05:55;7.77;;;6.80;;
3225;SDS011;1625;49.884;8.666;2022-10-31T07:08:21;8.53;;;6.10;;
3225;SDS011;1625;49.884;8.666;2022-10-31T07:10:54;11.20;;;7.10;;
3225;SDS011;1625;49.884;8.666;2022-10-31T07:13:21;7.30;;;6.60;;
3225;SDS011;1625;49.884;8.666;2022-10-31T07:15:50;10.20;;;5.83;;
3225;SDS011;1625;49.884;8.666;2022-10-31T07:18:17;6.63;;;6.03;;
3225;SDS011;1625;49.884;8.666;2022-10-31T07:20:42;11.67;;;6.70;;
3225;SDS011;1625;49.884;8.666;2022-10-31T07:23:11;9.67;;;6.50;;
3225;SDS011;1625;49.884;8.666;2022-10-31T07:25:37;8.53;;;6.13;;
3225;SDS011;1625;49.884;8.666;2022-10-31T07:28:04;7.47;;;6.40;;
3225;SDS011;1625;49.884;8.666;2022-10-31T07:30:29;7.00;;;6.30;;
3225;SDS011;1625;49.884;8.666;2022-10-31T07:32:55;7.40;;;6.13;;
3225;SDS011;1625;49.884;8.666;2022-10-31T07:35:21;11.17;;;6.83;;
3225;SDS011;1625;49.884;8.666;2022-10-31T07:37:51;8.63;;;6.33;;
3225;SDS011;1625;49.884;8.666;2022-10-31T07:40:17;7.03;;;6.33;;
3225;SDS011;1625;49.884;8.666;2022-10-31T07:42:44;8.67;;;6.97;;
3225;SDS011;1625;49.884;8.666;2022-10-31T07:45:12;9.67;;;7.30;;
3225;SDS011;1625;49.884;8.666;2022-10-31T07:47:42;7.30;;;6.50;;
3225;SDS011;1625;49.884;8.666;2022-10-31T07:50:18;7.33;;;6.63;;
3225;SDS011;1625;49.884;8.666;2022-10-31T07:52:45;9.40;;;6.73;;
3225;SDS011;1625;49.884;8.666;2022-10-31T07:55:11;12.23;;;6.60;;
3225;SDS011;1625;49.884;8.666;2022-10-31T07:57:36;8.63;;;6.43;;
3225;SDS011;1625;49.884;8.666;2022-10-31T08:00:05;11.17;;;7.00;;
3225;SDS011;1625;49.884;8.666;2022-10-31T08:02:32;8.20;;;7.33;;
3225;SDS011;1625;49.884;8.666;2022-10-31T08:04:58;9.60;;;7.60;;
3225;SDS011;1625;49.884;8.666;2022-10-31T08:07:25;7.43;;;6.40;;
3225;SDS011;1625;49.884;8.666;2022-10-31T08:09:50;11.10;;;7.00;;
3225;SDS011;1625;49.884;8.666;2022-10-31T08:12:16;8.53;;;7.53;;
3225;SDS011;1625;49.884;8.666;2022-10-31T08:14:42;10.10;;;7.43;;
3225;SDS011;1625;49.884;8.666;2022-10-31T08:17:07;7.33;;;6.63;;
3225;SDS011;1625;49.884;8.666;2022-10-31T08:19:33;7.17;;;6.20;;
3225;SDS011;1625;49.884;8.666;2022-10-31T08:21:58;9.63;;;6.23;;
3225;SDS011;1625;49.884;8.666;2022-10-31T08:24:24;6.67;;;6.00;;
3225;SDS011;1625;49.884;8.666;2022-10-31T08:26:49;7.93;;;7.03;;
3225;SDS011;1625;49.884;8.666;2022-10-31T08:29:16;7.17;;;6.47;;
3225;SDS011;1625;49.884;8.666;2022-10-31T08:31:42;6.63;;;5.90;;
3225;SDS011;1625;49.884;8.666;2022-10-31T08:34:07;7.23;;;6.43;;
3225;SDS011;1625;49.884;8.666;2022-10-31T08:36:33;7.93;;;6.73;;
3225;SDS011;1625;49.884;8.666;2022-10-31T08:38:59;7.40;;;6.70;;
3225;SDS011;1625;49.884;8.666;2022-10-31T08:41:25;8.10;;;6.70;;
3225;SDS011;1625;49.884;8.666;2022-10-31T08:43:50;7.90;;;7.10;;
3225;SDS011;1625;49.884;8.666;2022-10-31T08:46:16;8.73;;;6.50;;
3225;SDS011;1625;49.884;8.666;2022-10-31T08:48:42;9.90;;;6.80;;
3225;SDS011;1625;49.884;8.666;2022-10-31T08:51:08;8.53;;;6.50;;
3225;SDS011;1625;49.884;8.666;2022-10-31T08:53:34;7.03;;;6.33;;
3225;SDS011;1625;49.884;8.666;2022-10-31T08:56:00;8.90;;;6.63;;
3225;SDS011;1625;49.884;8.666;2022-10-31T08:58:25;8.77;;;7.30;;
3225;SDS011;1625;49.884;8.666;2022-10-31T09:00:51;7.87;;;6.40;;
3225;SDS011;1625;49.884;8.666;2022-10-31T09:03:20;10.43;;;6.83;;
3225;SDS011;1625;49.884;8.666;2022-10-31T09:05:50;8.73;;;6.80;;
3225;SDS011;1625;49.884;8.666;2022-10-31T09:08:19;7.93;;;6.90;;
3225;SDS011;1625;49.884;8.666;2022-10-31T09:10:44;15.70;;;6.60;;
3225;SDS011;1625;49.884;8.666;2022-10-31T09:13:11;8.97;;;6.87;;
3225;SDS011;1625;49.884;8.666;2022-10-31T09:15:39;12.00;;;6.50;;
3225;SDS011;1625;49.884;8.666;2022-10-31T09:18:06;7.93;;;6.90;;
3225;SDS011;1625;49.884;8.666;2022-10-31T09:20:33;11.97;;;6.90;;
3225;SDS011;1625;49.884;8.666;2022-10-31T09:23:00;7.40;;;6.20;;
3225;SDS011;1625;49.884;8.666;2022-10-31T09:25:28;8.27;;;7.47;;
3225;SDS011;1625;49.884;8.666;2022-10-31T09:27:58;7.03;;;6.23;;
3225;SDS011;1625;49.884;8.666;2022-10-31T09:30:25;7.30;;;6.27;;
3225;SDS011;1625;49.884;8.666;2022-10-31T09:33:00;8.60;;;6.97;;
3225;SDS011;1625;49.884;8.666;2022-10-31T09:35:27;11.13;;;6.57;;
3225;SDS011;1625;49.884;8.666;2022-10-31T09:37:54;6.47;;;5.83;;
3225;SDS011;1625;49.884;8.666;2022-10-31T09:40:20;6.33;;;5.60;;
3225;SDS011;1625;49.884;8.666;2022-10-31T09:42:57;6.70;;;6.10;;
3225;SDS011;1625;49.884;8.666;2022-10-31T09:48:16;7.40;;;5.83;;
3225;SDS011;1625;49.884;8.666;2022-10-31T09:53:30;6.40;;;5.73;;
3225;SDS011;1625;49.884;8.666;2022-10-31T09:56:02;13.90;;;6.60;;
3225;SDS011;1625;49.884;8.666;2022-10-31T09:58:39;9.80;;;6.27;;
3225;SDS011;1625;49.884;8.666;2022-10-31T10:01:54;7.17;;;6.47;;
3225;SDS011;1625;49.884;8.666;2022-10-31T10:06:54;6.57;;;5.73;;
3225;SDS011;1625;49.884;8.666;2022-10-31T10:09:22;6.40;;;5.80;;
3225;SDS011;1625;49.884;8.666;2022-10-31T10:12:04;6.13;;;5.53;;
3225;SDS011;1625;49.884;8.666;2022-10-31T10:15:09;7.30;;;5.80;;
3225;SDS011;1625;49.884;8.666;2022-10-31T10:18:06;7.77;;;5.80;;
3225;SDS011;1625;49.884;8.666;2022-10-31T10:25:58;6.90;;;5.97;;
3225;SDS011;1625;49.884;8.666;2022-10-31T10:29:17;9.90;;;5.90;;
3225;SDS011;1625;49.884;8.666;2022-10-31T10:32:00;5.80;;;5.20;;
3225;SDS011;1625;49.884;8.666;2022-10-31T10:34:32;6.50;;;5.40;;
3225;SDS011;1625;49.884;8.666;2022-10-31T10:37:17;10.60;;;5.97;;
3225;SDS011;1625;49.884;8.666;2022-10-31T10:39:54;7.20;;;5.70;;
3225;SDS011;1625;49.884;8.666;2022-10-31T10:42:25;8.83;;;6.43;;
3225;SDS011;1625;49.884;8.666;2022-10-31T10:45:20;6.47;;;5.80;;
3225;SDS011;1625;49.884;8.666;2022-10-31T10:48:20;5.93;;;5.13;;
3225;SDS011;1625;49.884;8.666;2022-10-31T10:51:15;8.70;;;6.30;;
3225;SDS011;1625;49.884;8.666;2022-10-31T10:54:06;8.70;;;5.40;;
3225;SDS011;1625;49.884;8.666;2022-10-31T10:57:06;6.33;;;5.73;;
3225;SDS011;1625;49.884;8.666;2022-10-31T10:59:42;6.60;;;5.90;;
3225;SDS011;1625;49.884;8.666;2022-10-31T11:02:15;7.73;;;5.43;;
3225;SDS011;1625;49.884;8.666;2022-10-31T11:04:55;6.17;;;5.50;;
3225;SDS011;1625;49.884;8.666;2022-10-31T11:07:23;8.70;;;6.40;;
3225;SDS011;1625;49.884;8.666;2022-10-31T11:10:02;9.77;;;5.90;;
3225;SDS011;1625;49.884;8.666;2022-10-31T11:12:33;9.97;;;5.90;;
3225;SDS011;1625;49.884;8.666;2022-10-31T11:15:00;6.30;;;5.70;;
3225;SDS011;1625;49.884;8.666;2022-10-31T11:17:33;6.50;;;5.60;;
3225;SDS011;1625;49.884;8.666;2022-10-31T11:22:37;7.37;;;5.47;;
3225;SDS011;1625;49.884;8.666;2022-10-31T11:25:22;6.70;;;5.37;;
3225;SDS011;1625;49.884;8.666;2022-10-31T11:27:59;8.97;;;6.27;;
3225;SDS011;1625;49.884;8.666;2022-10-31T11:30:29;8.27;;;5.20;;
3225;SDS011;1625;49.884;8.666;2022-10-31T11:33:02;8.43;;;5.70;;
3225;SDS011;1625;49.884;8.666;2022-10-31T11:35:28;7.50;;;5.50;;
3225;SDS011;1625;49.884;8.666;2022-10-31T11:37:55;6.23;;;5.60;;
3225;SDS011;1625;49.884;8.666;2022-10-31T11:40:24;6.63;;;5.40;;
3225;SDS011;1625;49.884;8.666;2022-10-31T11:42:53;7.27;;;5.83;;
3225;SDS011;1625;49.884;8.666;2022-10-31T11:47:48;9.33;;;6.03;;
3225;SDS011;1625;49.884;8.666;2022-10-31T11:50:25;6.70;;;5.10;;
3225;SDS011;1625;49.884;8.666;2022-10-31T11:53:03;5.37;;;4.97;;
3225;SDS011;1625;49.884;8.666;2022-10-31T11:55:37;10.17;;;5.40;;
3225;SDS011;1625;49.884;8.666;2022-10-31T11:58:17;7.30;;;5.90;;
3225;SDS011;1625;49.884;8.666;2022-10-31T12:00:52;8.60;;;5.73;;
3225;SDS011;1625;49.884;8.666;2022-10-31T12:06:05;6.10;;;4.90;;
3225;SDS011;1625;49.884;8.666;2022-10-31T12:08:37;6.87;;;6.27;;
3225;SDS011;1625;49.884;8.666;2022-10-31T12:19:35;7.63;;;5.67;;
3225;SDS011;1625;49.884;8.666;2022-10-31T12:22:18;6.53;;;5.00;;
3225;SDS011;1625;49.884;8.666;2022-10-31T12:35:57;5.80;;;5.30;;
3225;SDS011;1625;49.884;8.666;2022-10-31T12:41:06;8.17;;;5.97;;
3225;SDS011;1625;49.884;8.666;2022-10-31T12:43:45;8.53;;;5.30;;
3225;SDS011;1625;49.884;8.666;2022-10-31T12:54:45;9.67;;;5.83;;
3225;SDS011;1625;49.884;8.666;2022-10-31T13:00:11;7.53;;;5.90;;
3225;SDS011;1625;49.884;8.666;2022-10-31T13:02:56;7.90;;;5.37;;
3225;SDS011;1625;49.884;8.666;2022-10-31T13:05:29;6.10;;;5.07;;
3225;SDS011;1625;49.884;8.666;2022-10-31T13:08:10;6.53;;;5.37;;
3225;SDS011;1625;49.884;8.666;2022-10-31T13:10:42;5.73;;;5.23;;
3225;SDS011;1625;49.884;8.666;2022-10-31T13:13:27;6.27;;;5.63;;
3225;SDS011;1625;49.884;8.666;2022-10-31T13:16:15;6.33;;;5.50;;
3225;SDS011;1625;49.884;8.666;2022-10-31T13:18:44;8.63;;;5.63;;
3225;SDS011;1625;49.884;8.666;2022-10-31T13:21:25;8.30;;;5.07;;
3225;SDS011;1625;49.884;8.666;2022-10-31T13:23:53;5.63;;;5.13;;
3225;SDS011;1625;49.884;8.666;2022-10-31T13:26:33;7.80;;;5.03;;
3225;SDS011;1625;49.884;8.666;2022-10-31T13:31:52;7.37;;;5.20;;
3225;SDS011;1625;49.884;8.666;2022-10-31T13:34:41;5.57;;;4.93;;
3225;SDS011;1625;49.884;8.666;2022-10-31T13:45:14;6.60;;;5.20;;
3225;SDS011;1625;49.884;8.666;2022-10-31T13:48:16;5.30;;;4.90;;
3225;SDS011;1625;49.884;8.666;2022-10-31T13:50:55;7.17;;;4.60;;
3225;SDS011;1625;49.884;8.666;2022-10-31T13:53:34;8.10;;;5.40;;
3225;SDS011;1625;49.884;8.666;2022-10-31T13:56:27;6.57;;;5.77;;
3225;SDS011;1625;49.884;8.666;2022-10-31T13:59:00;8.03;;;5.67;;
3225;SDS011;1625;49.884;8.666;2022-10-31T14:01:29;7.00;;;5.63;;
3225;SDS011;1625;49.884;8.666;2022-10-31T14:04:07;6.27;;;5.47;;
3225;SDS011;1625;49.884;8.666;2022-10-31T14:12:00;7.73;;;5.47;;
3225;SDS011;1625;49.884;8.666;2022-10-31T15:17:25;17.20;;;15.50;;
3225;SDS011;1625;49.884;8.666;2022-10-31T15:20:57;6.77;;;6.17;;
3225;SDS011;1625;49.884;8.666;2022-10-31T15:24:41;15.97;;;14.47;;
3225;SDS011;1625;49.884;8.666;2022-10-31T15:27:14;10.47;;;9.47;;
3225;SDS011;1625;49.884;8.666;2022-10-31T17:10:57;11.20;;;7.50;;
3225;SDS011;1625;49.884;8.666;2022-10-31T18:04:01;10.60;;;8.53;;
3225;SDS011;1625;49.884;8.666;2022-10-31T18:06:26;9.90;;;9.00;;
3225;SDS011;1625;49.884;8.666;2022-10-31T18:08:53;10.00;;;9.00;;
3225;SDS011;1625;49.884;8.666;2022-10-31T18:15:05;9.70;;;8.70;;
3225;SDS011;1625;49.884;8.666;2022-10-31T18:18:35;10.63;;;9.60;;
3225;SDS011;1625;49.884;8.666;2022-10-31T18:21:21;11.13;;;10.03;;
3225;SDS011;1625;49.884;8.666;2022-10-31T18:24:55;10.90;;;9.80;;
3225;SDS011;1625;49.884;8.666;2022-10-31T18:33:31;11.77;;;9.90;;
3225;SDS011;1625;49.884;8.666;2022-10-31T18:39:17;13.27;;;10.80;;
3225;SDS011;1625;49.884;8.666;2022-10-31T19:49:41;13.37;;;12.07;;
3225;SDS011;1625;49.884;8.666;2022-10-31T19:52:11;17.10;;;12.30;;
3225;SDS011;1625;49.884;8.666;2022-10-31T19:54:37;14.43;;;13.03;;
3225;SDS011;1625;49.884;8.666;2022-10-31T19:57:06;13.33;;;12.03;;
3225;SDS011;1625;49.884;8.666;2022-10-31T19:59:37;13.23;;;11.93;;
3225;SDS011;1625;49.884;8.666;2022-10-31T20:02:03;13.10;;;11.90;;
3225;SDS011;1625;49.884;8.666;2022-10-31T20:04:28;14.43;;;13.03;;
3225;SDS011;1625;49.884;8.666;2022-10-31T20:06:54;13.77;;;12.20;;
3225;SDS011;1625;49.884;8.666;2022-10-31T20:09:20;14.80;;;11.90;;
3225;SDS011;1625;49.884;8.666;2022-10-31T20:11:49;15.90;;;13.13;;
3225;SDS011;1625;49.884;8.666;2022-10-31T20:14:15;15.00;;;13.47;;
3225;SDS011;1625;49.884;8.666;2022-10-31T20:16:41;14.43;;;13.03;;
3225;SDS011;1625;49.884;8.666;2022-10-31T20:19:10;15.07;;;13.57;;
3225;SDS011;1625;49.884;8.666;2022-10-31T20:21:37;14.97;;;13.40;;
3225;SDS011;1625;49.884;8.666;2022-10-31T20:24:05;18.00;;;13.20;;
3225;SDS011;1625;49.884;8.666;2022-10-31T20:26:33;15.23;;;13.43;;
3225;SDS011;1625;49.884;8.666;2022-10-31T20:29:00;13.80;;;12.40;;
3225;SDS011;1625;49.884;8.666;2022-10-31T20:31:28;15.23;;;13.30;;
3225;SDS011;1625;49.884;8.666;2022-10-31T20:33:57;14.17;;;12.77;;
3225;SDS011;1625;49.884;8.666;2022-10-31T20:36:26;14.10;;;12.73;;
3225;SDS011;1625;49.884;8.666;2022-10-31T20:38:58;14.33;;;12.77;;
3225;SDS011;1625;49.884;8.666;2022-10-31T20:41:24;15.13;;;13.73;;
3225;SDS011;1625;49.884;8.666;2022-10-31T20:43:54;15.03;;;13.53;;
3225;SDS011;1625;49.884;8.666;2022-10-31T20:46:24;14.30;;;12.90;;
3225;SDS011;1625;49.884;8.666;2022-10-31T20:48:56;13.53;;;12.30;;
3225;SDS011;1625;49.884;8.666;2022-10-31T20:51:23;18.03;;;13.83;;
3225;SDS011;1625;49.884;8.666;2022-10-31T20:53:53;14.57;;;13.07;;
3225;SDS011;1625;49.884;8.666;2022-10-31T20:56:34;14.33;;;12.40;;
3225;SDS011;1625;49.884;8.666;2022-10-31T20:59:04;12.90;;;11.60;;
3225;SDS011;1625;49.884;8.666;2022-10-31T21:01:34;16.37;;;14.17;;
3225;SDS011;1625;49.884;8.666;2022-10-31T21:04:02;15.23;;;13.47;;
3225;SDS011;1625;49.884;8.666;2022-10-31T21:06:28;16.03;;;13.77;;
3225;SDS011;1625;49.884;8.666;2022-10-31T21:08:54;14.20;;;12.90;;
3225;SDS011;1625;49.884;8.666;2022-10-31T21:11:22;14.60;;;13.20;;
3225;SDS011;1625;49.884;8.666;2022-10-31T21:13:50;15.10;;;13.67;;
3225;SDS011;1625;49.884;8.666;2022-10-31T21:16:21;14.53;;;13.13;;
3225;SDS011;1625;49.884;8.666;2022-10-31T21:18:49;14.63;;;12.40;;
3225;SDS011;1625;49.884;8.666;2022-10-31T21:21:17;13.67;;;12.40;;
3225;SDS011;1625;49.884;8.666;2022-10-31T21:23:57;13.60;;;12.30;;
3225;SDS011;1625;49.884;8.666;2022-10-31T21:26:26;14.90;;;13.10;;
3225;SDS011;1625;49.884;8.666;2022-10-31T21:28:54;13.80;;;12.50;;
3225;SDS011;1625;49.884;8.666;2022-10-31T21:31:22;14.13;;;12.80;;
3225;SDS011;1625;49.884;8.666;2022-10-31T21:33:49;16.23;;;14.70;;
3225;SDS011;1625;49.884;8.666;2022-10-31T21:36:14;22.47;;;20.47;;
3225;SDS011;1625;49.884;8.666;2022-10-31T21:38:41;28.97;;;25.80;;
3225;SDS011;1625;49.884;8.666;2022-10-31T21:41:08;30.37;;;27.37;;
3225;SDS011;1625;49.884;8.666;2022-10-31T21:43:36;26.13;;;23.43;;
3225;SDS011;1625;49.884;8.666;2022-10-31T21:46:15;19.03;;;17.43;;
3225;SDS011;1625;49.884;8.666;2022-10-31T21:49:18;18.10;;;16.57;;
3225;SDS011;1625;49.884;8.666;2022-10-31T21:51:56;15.07;;;13.67;;
3225;SDS011;1625;49.884;8.666;2022-10-31T21:54:31;14.57;;;13.20;;
3225;SDS011;1625;49.884;8.666;2022-10-31T21:58:14;16.43;;;12.20;;
3225;SDS011;1625;49.884;8.666;2022-10-31T22:01:35;12.80;;;11.40;;
3225;SDS011;1625;49.884;8.666;2022-10-31T22:04:02;10.97;;;9.97;;
3225;SDS011;1625;49.884;8.666;2022-10-31T22:06:29;11.37;;;10.27;;
3225;SDS011;1625;49.884;8.666;2022-10-31T22:08:59;12.10;;;11.00;;
3225;SDS011;1625;49.884;8.666;2022-10-31T22:11:26;12.53;;;11.33;;
3225;SDS011;1625;49.884;8.666;2022-10-31T22:13:53;13.70;;;12.47;;
3225;SDS011;1625;49.884;8.666;2022-10-31T22:16:20;15.00;;;12.97;;
3225;SDS011;1625;49.884;8.666;2022-10-31T22:18:50;14.90;;;13.40;;
3225;SDS011;1625;49.884;8.666;2022-10-31T22:21:17;13.50;;;12.30;;
3225;SDS011;1625;49.884;8.666;2022-10-31T22:23:48;13.83;;;12.43;;
3225;SDS011;1625;49.884;8.666;2022-10-31T22:26:15;14.87;;;13.20;;
3225;SDS011;1625;49.884;8.666;2022-10-31T22:28:42;17.63;;;12.53;;
3225;SDS011;1625;49.884;8.666;2022-10-31T22:31:10;15.73;;;13.63;;